sensor_id;sensor_type;location;lat;lon;timestamp;P1;durP1;ratioP1;P2;durP2;ratioP2
81725;SDS011;71135;16.738;-14.648;2024-02-14T06:39:29;19.95;;;6.22;;
81725;SDS011;71135;16.738;-14.648;2024-02-14T06:45:25;18.52;;;5.25;;
81725;SDS011;71135;16.738;-14.648;2024-02-14T06:57:01;21.25;;;5.70;;
81725;SDS011;71135;16.738;-14.648;2024-02-14T06:59:30;18.60;;;5.88;;
81725;SDS011;71135;16.738;-14.648;2024-02-14T07:02:02;17.38;;;5.30;;
81725;SDS011;71135;16.738;-14.648;2024-02-14T07:04:32;15.70;;;4.88;;
81725;SDS011;71135;16.738;-14.648;2024-02-14T07:07:03;20.00;;;5.53;;
81725;SDS011;71135;16.738;-14.648;2024-02-14T07:09:33;21.80;;;6.00;;
81725;SDS011;71135;16.738;-14.648;2024-02-14T07:12:04;17.60;;;5.53;;
81725;SDS011;71135;16.738;-14.648;2024-02-14T07:14:34;13.30;;;5.75;;
81725;SDS011;71135;16.738;-14.648;2024-02-14T07:17:07;19.45;;;5.88;;
81725;SDS011;71135;16.738;-14.648;2024-02-14T07:19:36;15.18;;;5.47;;
81725;SDS011;71135;16.738;-14.648;2024-02-14T07:22:06;18.90;;;6.57;;
81725;SDS011;71135;16.738;-14.648;2024-02-14T07:24:35;21.63;;;7.20;;
81725;SDS011;71135;16.738;-14.648;2024-02-14T07:27:05;17.20;;;6.85;;
81725;SDS011;71135;16.738;-14.648;2024-02-14T07:29:34;16.65;;;6.72;;
81725;SDS011;71135;16.738;-14.648;2024-02-14T07:32:07;17.45;;;7.57;;
81725;SDS011;71135;16.738;-14.648;2024-02-14T07:37:54;18.10;;;6.63;;
81725;SDS011;71135;16.738;-14.648;2024-02-14T07:40:24;17.30;;;7.95;;
81725;SDS011;71135;16.738;-14.648;2024-02-14T07:42:56;22.35;;;8.98;;
81725;SDS011;71135;16.738;-14.648;2024-02-14T07:48:47;19.17;;;8.55;;
81725;SDS011;71135;16.738;-14.648;2024-02-14T07:51:16;24.77;;;8.95;;
81725;SDS011;71135;16.738;-14.648;2024-02-14T07:53:48;20.63;;;9.25;;
81725;SDS011;71135;16.738;-14.648;2024-02-14T07:56:18;22.20;;;9.40;;
81725;SDS011;71135;16.738;-14.648;2024-02-14T07:58:48;25.38;;;9.95;;
81725;SDS011;71135;16.738;-14.648;2024-02-14T08:01:17;27.17;;;10.77;;
81725;SDS011;71135;16.738;-14.648;2024-02-14T08:03:49;30.08;;;10.95;;
81725;SDS011;71135;16.738;-14.648;2024-02-14T08:06:20;22.15;;;9.63;;
81725;SDS011;71135;16.738;-14.648;2024-02-14T08:08:49;22.05;;;9.02;;
81725;SDS011;71135;16.738;-14.648;2024-02-14T08:11:23;31.58;;;9.73;;
81725;SDS011;71135;16.738;-14.648;2024-02-14T08:13:52;23.63;;;9.38;;
81725;SDS011;71135;16.738;-14.648;2024-02-14T08:16:23;24.80;;;9.70;;
81725;SDS011;71135;16.738;-14.648;2024-02-14T08:18:55;21.70;;;8.63;;
81725;SDS011;71135;16.738;-14.648;2024-02-14T08:21:26;25.90;;;8.85;;
81725;SDS011;71135;16.738;-14.648;2024-02-14T08:23:56;20.65;;;9.85;;
81725;SDS011;71135;16.738;-14.648;2024-02-14T08:26:25;22.23;;;10.23;;
81725;SDS011;71135;16.738;-14.648;2024-02-14T08:28:55;20.27;;;8.75;;
81725;SDS011;71135;16.738;-14.648;2024-02-14T08:31:24;19.20;;;9.40;;
81725;SDS011;71135;16.738;-14.648;2024-02-14T08:33:57;25.02;;;10.15;;
81725;SDS011;71135;16.738;-14.648;2024-02-14T08:36:26;24.85;;;10.25;;
81725;SDS011;71135;16.738;-14.648;2024-02-14T08:38:56;24.45;;;10.93;;
81725;SDS011;71135;16.738;-14.648;2024-02-14T08:41:26;23.92;;;11.43;;
81725;SDS011;71135;16.738;-14.648;2024-02-14T08:43:57;23.77;;;11.15;;
81725;SDS011;71135;16.738;-14.648;2024-02-14T08:46:27;23.13;;;11.18;;
81725;SDS011;71135;16.738;-14.648;2024-02-14T08:55:27;26.73;;;13.57;;
81725;SDS011;71135;16.738;-14.648;2024-02-14T09:01:22;29.58;;;13.73;;
81725;SDS011;71135;16.738;-14.648;2024-02-14T09:10:10;27.30;;;13.55;;
81725;SDS011;71135;16.738;-14.648;2024-02-14T09:12:42;25.30;;;12.80;;
81725;SDS011;71135;16.738;-14.648;2024-02-14T09:18:39;25.90;;;13.40;;
81725;SDS011;71135;16.738;-14.648;2024-02-14T09:21:14;27.25;;;13.45;;
81725;SDS011;71135;16.738;-14.648;2024-02-14T09:23:51;28.98;;;14.02;;
81725;SDS011;71135;16.738;-14.648;2024-02-14T09:26:21;26.23;;;13.80;;
81725;SDS011;71135;16.738;-14.648;2024-02-14T09:28:54;23.23;;;12.90;;
81725;SDS011;71135;16.738;-14.648;2024-02-14T09:31:23;23.48;;;12.15;;
81725;SDS011;71135;16.738;-14.648;2024-02-14T09:33:54;22.38;;;13.10;;
81725;SDS011;71135;16.738;-14.648;2024-02-14T09:45:37;19.67;;;11.82;;
81725;SDS011;71135;16.738;-14.648;2024-02-14T09:48:13;21.85;;;11.23;;
81725;SDS011;71135;16.738;-14.648;2024-02-14T09:50:46;18.38;;;10.35;;
81725;SDS011;71135;16.738;-14.648;2024-02-14T09:53:20;27.83;;;11.43;;
81725;SDS011;71135;16.738;-14.648;2024-02-14T09:56:04;23.92;;;10.15;;
81725;SDS011;71135;16.738;-14.648;2024-02-14T10:04:17;14.30;;;8.30;;
81725;SDS011;71135;16.738;-14.648;2024-02-14T10:06:50;14.52;;;8.27;;
81725;SDS011;71135;16.738;-14.648;2024-02-14T10:09:20;11.68;;;7.43;;
81725;SDS011;71135;16.738;-14.648;2024-02-14T10:11:51;12.10;;;7.57;;
81725;SDS011;71135;16.738;-14.648;2024-02-14T10:14:22;10.93;;;7.28;;
81725;SDS011;71135;16.738;-14.648;2024-02-14T10:16:59;11.30;;;7.47;;
81725;SDS011;71135;16.738;-14.648;2024-02-14T10:19:28;11.85;;;7.20;;
81725;SDS011;71135;16.738;-14.648;2024-02-14T10:25:11;10.10;;;6.72;;
81725;SDS011;71135;16.738;-14.648;2024-02-14T10:27:41;9.57;;;5.35;;
81725;SDS011;71135;16.738;-14.648;2024-02-14T10:30:10;10.48;;;6.60;;
81725;SDS011;71135;16.738;-14.648;2024-02-14T10:32:43;8.18;;;5.60;;
81725;SDS011;71135;16.738;-14.648;2024-02-14T10:35:14;6.00;;;4.57;;
81725;SDS011;71135;16.738;-14.648;2024-02-14T10:37:44;6.97;;;5.00;;
81725;SDS011;71135;16.738;-14.648;2024-02-14T10:40:14;7.40;;;5.25;;
81725;SDS011;71135;16.738;-14.648;2024-02-14T10:42:44;7.18;;;4.90;;
81725;SDS011;71135;16.738;-14.648;2024-02-14T10:45:13;7.75;;;5.28;;
81725;SDS011;71135;16.738;-14.648;2024-02-14T10:47:45;8.15;;;5.03;;
81725;SDS011;71135;16.738;-14.648;2024-02-14T10:50:16;9.75;;;5.72;;
81725;SDS011;71135;16.738;-14.648;2024-02-14T10:52:46;7.43;;;5.40;;
81725;SDS011;71135;16.738;-14.648;2024-02-14T10:55:17;9.57;;;6.28;;
81725;SDS011;71135;16.738;-14.648;2024-02-14T10:57:49;11.35;;;7.53;;
81725;SDS011;71135;16.738;-14.648;2024-02-14T11:00:20;11.90;;;7.53;;
81725;SDS011;71135;16.738;-14.648;2024-02-14T11:02:52;11.98;;;8.05;;
81725;SDS011;71135;16.738;-14.648;2024-02-14T11:05:22;12.02;;;7.93;;
81725;SDS011;71135;16.738;-14.648;2024-02-14T11:07:51;13.82;;;8.85;;
81725;SDS011;71135;16.738;-14.648;2024-02-14T11:10:21;12.60;;;8.77;;
81725;SDS011;71135;16.738;-14.648;2024-02-14T11:12:53;13.13;;;8.13;;
81725;SDS011;71135;16.738;-14.648;2024-02-14T11:15:23;12.77;;;8.75;;
81725;SDS011;71135;16.738;-14.648;2024-02-14T11:18:05;13.45;;;9.38;;
81725;SDS011;71135;16.738;-14.648;2024-02-14T11:20:35;12.13;;;8.93;;
81725;SDS011;71135;16.738;-14.648;2024-02-14T11:23:06;14.10;;;8.75;;
81725;SDS011;71135;16.738;-14.648;2024-02-14T11:25:37;11.32;;;7.80;;
81725;SDS011;71135;16.738;-14.648;2024-02-14T11:28:13;11.00;;;7.57;;
81725;SDS011;71135;16.738;-14.648;2024-02-14T11:30:45;12.60;;;9.40;;
81725;SDS011;71135;16.738;-14.648;2024-02-14T11:33:18;12.85;;;8.57;;
81725;SDS011;71135;16.738;-14.648;2024-02-14T11:38:18;12.65;;;8.18;;
81725;SDS011;71135;16.738;-14.648;2024-02-14T11:40:49;9.90;;;7.35;;
81725;SDS011;71135;16.738;-14.648;2024-02-14T11:43:19;10.75;;;7.00;;
81725;SDS011;71135;16.738;-14.648;2024-02-14T11:45:48;12.10;;;7.22;;
81725;SDS011;71135;16.738;-14.648;2024-02-14T11:48:21;9.57;;;7.10;;
81725;SDS011;71135;16.738;-14.648;2024-02-14T11:50:51;10.82;;;7.22;;
81725;SDS011;71135;16.738;-14.648;2024-02-14T11:53:21;11.88;;;7.18;;
81725;SDS011;71135;16.738;-14.648;2024-02-14T11:55:50;8.30;;;5.63;;
81725;SDS011;71135;16.738;-14.648;2024-02-14T11:58:19;8.23;;;5.65;;
81725;SDS011;71135;16.738;-14.648;2024-02-14T12:00:49;6.65;;;4.93;;
81725;SDS011;71135;16.738;-14.648;2024-02-14T12:03:21;6.28;;;4.50;;
81725;SDS011;71135;16.738;-14.648;2024-02-14T12:05:52;6.00;;;4.47;;
81725;SDS011;71135;16.738;-14.648;2024-02-14T12:08:22;7.32;;;4.53;;
81725;SDS011;71135;16.738;-14.648;2024-02-14T12:10:52;7.88;;;4.55;;
81725;SDS011;71135;16.738;-14.648;2024-02-14T12:13:22;4.68;;;3.35;;
81725;SDS011;71135;16.738;-14.648;2024-02-14T12:15:52;4.50;;;3.45;;
81725;SDS011;71135;16.738;-14.648;2024-02-14T12:18:25;4.90;;;3.60;;
81725;SDS011;71135;16.738;-14.648;2024-02-14T12:21:02;5.47;;;3.15;;
81725;SDS011;71135;16.738;-14.648;2024-02-14T12:23:33;4.95;;;3.20;;
81725;SDS011;71135;16.738;-14.648;2024-02-14T12:26:03;5.82;;;3.92;;
81725;SDS011;71135;16.738;-14.648;2024-02-14T12:28:32;6.57;;;3.83;;
81725;SDS011;71135;16.738;-14.648;2024-02-14T12:31:03;6.40;;;4.25;;
81725;SDS011;71135;16.738;-14.648;2024-02-14T12:33:35;6.28;;;4.20;;
81725;SDS011;71135;16.738;-14.648;2024-02-14T12:38:36;7.53;;;4.10;;
81725;SDS011;71135;16.738;-14.648;2024-02-14T12:41:05;7.05;;;4.53;;
81725;SDS011;71135;16.738;-14.648;2024-02-14T12:43:34;6.03;;;4.55;;
81725;SDS011;71135;16.738;-14.648;2024-02-14T12:46:03;7.40;;;4.82;;
81725;SDS011;71135;16.738;-14.648;2024-02-14T12:48:35;7.68;;;4.57;;
81725;SDS011;71135;16.738;-14.648;2024-02-14T12:51:05;8.57;;;5.93;;
81725;SDS011;71135;16.738;-14.648;2024-02-14T12:53:34;7.57;;;5.30;;
81725;SDS011;71135;16.738;-14.648;2024-02-14T12:56:04;5.03;;;3.63;;
81725;SDS011;71135;16.738;-14.648;2024-02-14T12:58:34;5.03;;;3.63;;
81725;SDS011;71135;16.738;-14.648;2024-02-14T13:01:03;6.43;;;3.47;;
81725;SDS011;71135;16.738;-14.648;2024-02-14T13:03:39;4.63;;;3.83;;
81725;SDS011;71135;16.738;-14.648;2024-02-14T13:06:08;6.28;;;3.38;;
81725;SDS011;71135;16.738;-14.648;2024-02-14T13:08:37;4.25;;;3.75;;
81725;SDS011;71135;16.738;-14.648;2024-02-14T13:11:07;6.50;;;3.90;;
81725;SDS011;71135;16.738;-14.648;2024-02-14T13:13:36;6.55;;;4.15;;
81725;SDS011;71135;16.738;-14.648;2024-02-14T13:16:07;5.72;;;4.47;;
81725;SDS011;71135;16.738;-14.648;2024-02-14T13:18:39;6.38;;;4.32;;
81725;SDS011;71135;16.738;-14.648;2024-02-14T13:21:08;4.75;;;3.53;;
81725;SDS011;71135;16.738;-14.648;2024-02-14T13:23:37;4.95;;;4.35;;
81725;SDS011;71135;16.738;-14.648;2024-02-14T13:26:06;6.05;;;4.35;;
81725;SDS011;71135;16.738;-14.648;2024-02-14T13:28:35;5.97;;;4.03;;
81725;SDS011;71135;16.738;-14.648;2024-02-14T13:31:06;5.50;;;3.80;;
81725;SDS011;71135;16.738;-14.648;2024-02-14T13:33:38;7.68;;;4.68;;
81725;SDS011;71135;16.738;-14.648;2024-02-14T13:36:08;4.90;;;3.70;;
81725;SDS011;71135;16.738;-14.648;2024-02-14T13:38:37;6.97;;;3.95;;
81725;SDS011;71135;16.738;-14.648;2024-02-14T13:41:06;7.22;;;3.45;;
81725;SDS011;71135;16.738;-14.648;2024-02-14T13:43:35;5.05;;;3.10;;
81725;SDS011;71135;16.738;-14.648;2024-02-14T13:46:04;3.67;;;2.90;;
81725;SDS011;71135;16.738;-14.648;2024-02-14T13:48:35;3.85;;;2.67;;
81725;SDS011;71135;16.738;-14.648;2024-02-14T13:51:06;2.80;;;1.95;;
81725;SDS011;71135;16.738;-14.648;2024-02-14T13:53:36;3.15;;;2.50;;
81725;SDS011;71135;16.738;-14.648;2024-02-14T13:56:05;2.55;;;1.90;;
81725;SDS011;71135;16.738;-14.648;2024-02-14T13:58:35;3.78;;;2.00;;
81725;SDS011;71135;16.738;-14.648;2024-02-14T14:01:04;2.55;;;2.00;;
81725;SDS011;71135;16.738;-14.648;2024-02-14T14:03:33;2.60;;;2.13;;
81725;SDS011;71135;16.738;-14.648;2024-02-14T14:06:03;2.75;;;1.58;;
81725;SDS011;71135;16.738;-14.648;2024-02-14T14:08:36;2.85;;;1.80;;
81725;SDS011;71135;16.738;-14.648;2024-02-14T14:11:05;2.10;;;1.90;;
81725;SDS011;71135;16.738;-14.648;2024-02-14T14:13:34;2.28;;;1.35;;
81725;SDS011;71135;16.738;-14.648;2024-02-14T14:16:04;3.20;;;1.63;;
81725;SDS011;71135;16.738;-14.648;2024-02-14T14:18:34;1.55;;;1.30;;
81725;SDS011;71135;16.738;-14.648;2024-02-14T14:21:07;3.22;;;1.30;;
81725;SDS011;71135;16.738;-14.648;2024-02-14T14:23:36;1.73;;;1.42;;
81725;SDS011;71135;16.738;-14.648;2024-02-14T14:26:05;1.55;;;1.45;;
81725;SDS011;71135;16.738;-14.648;2024-02-14T14:28:35;1.88;;;1.30;;
81725;SDS011;71135;16.738;-14.648;2024-02-14T14:31:04;1.50;;;1.38;;
81725;SDS011;71135;16.738;-14.648;2024-02-14T14:33:36;2.80;;;1.75;;
81725;SDS011;71135;16.738;-14.648;2024-02-14T14:36:09;2.13;;;1.40;;
81725;SDS011;71135;16.738;-14.648;2024-02-14T14:38:38;2.08;;;1.80;;
81725;SDS011;71135;16.738;-14.648;2024-02-14T14:41:07;1.70;;;1.42;;
81725;SDS011;71135;16.738;-14.648;2024-02-14T14:43:36;2.50;;;1.80;;
81725;SDS011;71135;16.738;-14.648;2024-02-14T14:46:05;2.15;;;1.75;;
81725;SDS011;71135;16.738;-14.648;2024-02-14T14:48:37;4.20;;;2.15;;
81725;SDS011;71135;16.738;-14.648;2024-02-14T14:51:08;3.40;;;2.45;;
81725;SDS011;71135;16.738;-14.648;2024-02-14T14:53:38;3.08;;;2.33;;
81725;SDS011;71135;16.738;-14.648;2024-02-14T14:56:07;3.50;;;2.40;;
81725;SDS011;71135;16.738;-14.648;2024-02-14T14:58:36;3.42;;;2.70;;
81725;SDS011;71135;16.738;-14.648;2024-02-14T15:01:08;3.45;;;2.85;;
81725;SDS011;71135;16.738;-14.648;2024-02-14T15:03:39;3.60;;;2.80;;
81725;SDS011;71135;16.738;-14.648;2024-02-14T15:06:11;5.03;;;3.08;;
81725;SDS011;71135;16.738;-14.648;2024-02-14T15:08:41;5.75;;;3.47;;
81725;SDS011;71135;16.738;-14.648;2024-02-14T15:11:11;4.60;;;3.45;;
81725;SDS011;71135;16.738;-14.648;2024-02-14T15:13:42;7.43;;;3.58;;
81725;SDS011;71135;16.738;-14.648;2024-02-14T15:16:12;4.35;;;3.25;;
81725;SDS011;71135;16.738;-14.648;2024-02-14T15:18:41;5.75;;;3.15;;
81725;SDS011;71135;16.738;-14.648;2024-02-14T15:21:14;4.28;;;3.38;;
81725;SDS011;71135;16.738;-14.648;2024-02-14T15:23:43;3.45;;;2.65;;
81725;SDS011;71135;16.738;-14.648;2024-02-14T15:26:12;5.68;;;3.40;;
81725;SDS011;71135;16.738;-14.648;2024-02-14T15:28:43;5.82;;;4.18;;
81725;SDS011;71135;16.738;-14.648;2024-02-14T15:31:21;7.30;;;4.68;;
81725;SDS011;71135;16.738;-14.648;2024-02-14T15:34:03;7.90;;;4.80;;
81725;SDS011;71135;16.738;-14.648;2024-02-14T15:36:35;8.88;;;6.30;;
81725;SDS011;71135;16.738;-14.648;2024-02-14T15:39:04;6.00;;;5.03;;
81725;SDS011;71135;16.738;-14.648;2024-02-14T15:41:33;6.25;;;4.63;;
81725;SDS011;71135;16.738;-14.648;2024-02-14T15:44:03;5.75;;;4.60;;
81725;SDS011;71135;16.738;-14.648;2024-02-14T15:46:32;4.55;;;4.03;;
81725;SDS011;71135;16.738;-14.648;2024-02-14T15:49:01;4.60;;;3.97;;
81725;SDS011;71135;16.738;-14.648;2024-02-14T15:51:30;5.70;;;3.63;;
81725;SDS011;71135;16.738;-14.648;2024-02-14T15:54:02;7.03;;;3.92;;
81725;SDS011;71135;16.738;-14.648;2024-02-14T15:56:32;6.15;;;3.70;;
81725;SDS011;71135;16.738;-14.648;2024-02-14T15:59:01;5.30;;;4.00;;
81725;SDS011;71135;16.738;-14.648;2024-02-14T16:01:30;5.85;;;4.32;;
81725;SDS011;71135;16.738;-14.648;2024-02-14T16:03:59;7.55;;;4.90;;
81725;SDS011;71135;16.738;-14.648;2024-02-14T16:06:31;7.20;;;5.72;;
81725;SDS011;71135;16.738;-14.648;2024-02-14T16:09:03;6.50;;;5.80;;
81725;SDS011;71135;16.738;-14.648;2024-02-14T16:11:32;6.15;;;5.38;;
81725;SDS011;71135;16.738;-14.648;2024-02-14T16:14:02;7.65;;;6.25;;
81725;SDS011;71135;16.738;-14.648;2024-02-14T16:16:31;6.55;;;5.95;;
81725;SDS011;71135;16.738;-14.648;2024-02-14T16:19:00;7.15;;;5.72;;
81725;SDS011;71135;16.738;-14.648;2024-02-14T16:21:30;7.00;;;5.53;;
81725;SDS011;71135;16.738;-14.648;2024-02-14T16:23:59;10.23;;;6.95;;
81725;SDS011;71135;16.738;-14.648;2024-02-14T16:26:31;10.23;;;5.50;;
81725;SDS011;71135;16.738;-14.648;2024-02-14T16:29:00;7.13;;;5.93;;
81725;SDS011;71135;16.738;-14.648;2024-02-14T16:31:29;6.93;;;5.75;;
81725;SDS011;71135;16.738;-14.648;2024-02-14T16:33:58;7.07;;;4.78;;
81725;SDS011;71135;16.738;-14.648;2024-02-14T16:36:28;6.35;;;4.70;;
81725;SDS011;71135;16.738;-14.648;2024-02-14T16:38:57;8.30;;;5.13;;
81725;SDS011;71135;16.738;-14.648;2024-02-14T16:41:27;8.57;;;5.68;;
81725;SDS011;71135;16.738;-14.648;2024-02-14T16:43:59;5.97;;;4.85;;
81725;SDS011;71135;16.738;-14.648;2024-02-14T16:46:31;6.15;;;5.43;;
81725;SDS011;71135;16.738;-14.648;2024-02-14T16:49:00;8.57;;;5.80;;
81725;SDS011;71135;16.738;-14.648;2024-02-14T16:51:29;7.93;;;5.43;;
81725;SDS011;71135;16.738;-14.648;2024-02-14T16:53:58;7.45;;;5.25;;
81725;SDS011;71135;16.738;-14.648;2024-02-14T16:56:28;11.98;;;5.50;;
81725;SDS011;71135;16.738;-14.648;2024-02-14T16:59:01;10.00;;;5.75;;
81725;SDS011;71135;16.738;-14.648;2024-02-14T17:01:30;11.15;;;7.20;;
81725;SDS011;71135;16.738;-14.648;2024-02-14T17:03:59;11.32;;;6.32;;
81725;SDS011;71135;16.738;-14.648;2024-02-14T17:06:28;11.63;;;6.13;;
81725;SDS011;71135;16.738;-14.648;2024-02-14T17:08:57;12.25;;;6.07;;
81725;SDS011;71135;16.738;-14.648;2024-02-14T17:11:28;9.15;;;6.38;;
81725;SDS011;71135;16.738;-14.648;2024-02-14T17:13:57;13.50;;;7.80;;
81725;SDS011;71135;16.738;-14.648;2024-02-14T17:16:31;14.05;;;7.93;;
81725;SDS011;71135;16.738;-14.648;2024-02-14T17:19:00;16.40;;;6.88;;
81725;SDS011;71135;16.738;-14.648;2024-02-14T17:21:29;14.52;;;7.75;;
81725;SDS011;71135;16.738;-14.648;2024-02-14T17:23:58;11.48;;;6.28;;
81725;SDS011;71135;16.738;-14.648;2024-02-14T17:26:28;10.88;;;4.90;;
81725;SDS011;71135;16.738;-14.648;2024-02-14T17:28:57;10.18;;;5.57;;
81725;SDS011;71135;16.738;-14.648;2024-02-14T17:31:32;11.82;;;7.18;;
81725;SDS011;71135;16.738;-14.648;2024-02-14T17:36:31;11.70;;;5.80;;
81725;SDS011;71135;16.738;-14.648;2024-02-14T17:39:01;8.05;;;5.18;;
81725;SDS011;71135;16.738;-14.648;2024-02-14T17:41:30;7.90;;;5.18;;
81725;SDS011;71135;16.738;-14.648;2024-02-14T17:44:00;8.75;;;4.95;;
81725;SDS011;71135;16.738;-14.648;2024-02-14T17:46:34;7.55;;;4.60;;
81725;SDS011;71135;16.738;-14.648;2024-02-14T17:49:03;10.20;;;5.75;;
81725;SDS011;71135;16.738;-14.648;2024-02-14T17:51:35;10.48;;;6.65;;
81725;SDS011;71135;16.738;-14.648;2024-02-14T17:54:04;5.95;;;5.10;;
81725;SDS011;71135;16.738;-14.648;2024-02-14T17:56:34;12.55;;;6.45;;
81725;SDS011;71135;16.738;-14.648;2024-02-14T17:59:03;9.20;;;5.88;;
81725;SDS011;71135;16.738;-14.648;2024-02-14T18:01:35;10.82;;;6.78;;
81725;SDS011;71135;16.738;-14.648;2024-02-14T18:04:07;10.50;;;5.53;;
81725;SDS011;71135;16.738;-14.648;2024-02-14T18:09:46;9.32;;;4.63;;
81725;SDS011;71135;16.738;-14.648;2024-02-14T18:12:15;8.32;;;4.70;;
81725;SDS011;71135;16.738;-14.648;2024-02-14T18:14:46;5.35;;;3.97;;
81725;SDS011;71135;16.738;-14.648;2024-02-14T18:17:18;6.85;;;3.65;;
81725;SDS011;71135;16.738;-14.648;2024-02-14T18:19:47;8.95;;;4.50;;
81725;SDS011;71135;16.738;-14.648;2024-02-14T18:22:16;11.43;;;5.03;;
81725;SDS011;71135;16.738;-14.648;2024-02-14T18:24:45;11.65;;;4.95;;
81725;SDS011;71135;16.738;-14.648;2024-02-14T18:27:15;7.85;;;5.13;;
81725;SDS011;71135;16.738;-14.648;2024-02-14T18:29:45;10.00;;;5.65;;
81725;SDS011;71135;16.738;-14.648;2024-02-14T18:32:14;10.55;;;5.43;;
81725;SDS011;71135;16.738;-14.648;2024-02-14T18:34:46;12.75;;;6.03;;
81725;SDS011;71135;16.738;-14.648;2024-02-14T18:37:15;14.68;;;5.03;;
81725;SDS011;71135;16.738;-14.648;2024-02-14T18:39:44;8.68;;;4.55;;
81725;SDS011;71135;16.738;-14.648;2024-02-14T18:42:15;10.88;;;5.47;;
81725;SDS011;71135;16.738;-14.648;2024-02-14T18:44:44;11.25;;;3.55;;
81725;SDS011;71135;16.738;-14.648;2024-02-14T18:47:13;7.03;;;3.42;;
81725;SDS011;71135;16.738;-14.648;2024-02-14T18:49:42;6.22;;;3.25;;
81725;SDS011;71135;16.738;-14.648;2024-02-14T18:52:14;6.38;;;3.17;;
81725;SDS011;71135;16.738;-14.648;2024-02-14T18:54:43;11.32;;;3.63;;
81725;SDS011;71135;16.738;-14.648;2024-02-14T18:57:12;12.52;;;3.10;;
81725;SDS011;71135;16.738;-14.648;2024-02-14T18:59:42;8.90;;;3.00;;
81725;SDS011;71135;16.738;-14.648;2024-02-14T19:02:11;7.32;;;2.72;;
81725;SDS011;71135;16.738;-14.648;2024-02-14T19:04:40;8.38;;;3.95;;
81725;SDS011;71135;16.738;-14.648;2024-02-14T19:07:12;6.78;;;3.13;;
81725;SDS011;71135;16.738;-14.648;2024-02-14T19:09:41;12.65;;;4.55;;
81725;SDS011;71135;16.738;-14.648;2024-02-14T19:12:10;11.38;;;4.38;;
81725;SDS011;71135;16.738;-14.648;2024-02-14T19:14:39;13.05;;;5.50;;
81725;SDS011;71135;16.738;-14.648;2024-02-14T19:17:09;11.95;;;5.75;;
81725;SDS011;71135;16.738;-14.648;2024-02-14T19:19:38;13.77;;;8.13;;
81725;SDS011;71135;16.738;-14.648;2024-02-14T19:22:07;16.00;;;6.00;;
81725;SDS011;71135;16.738;-14.648;2024-02-14T19:24:39;13.95;;;4.45;;
81725;SDS011;71135;16.738;-14.648;2024-02-14T19:27:08;6.03;;;4.05;;
81725;SDS011;71135;16.738;-14.648;2024-02-14T19:29:37;9.55;;;4.90;;
81725;SDS011;71135;16.738;-14.648;2024-02-14T19:32:06;8.77;;;5.18;;
81725;SDS011;71135;16.738;-14.648;2024-02-14T19:34:35;16.08;;;8.77;;
81725;SDS011;71135;16.738;-14.648;2024-02-14T19:37:05;12.00;;;5.35;;
81725;SDS011;71135;16.738;-14.648;2024-02-14T19:39:34;19.15;;;7.38;;
81725;SDS011;71135;16.738;-14.648;2024-02-14T19:42:06;13.77;;;7.03;;
81725;SDS011;71135;16.738;-14.648;2024-02-14T19:44:35;16.63;;;6.65;;
81725;SDS011;71135;16.738;-14.648;2024-02-14T19:47:04;14.63;;;6.93;;
81725;SDS011;71135;16.738;-14.648;2024-02-14T19:49:33;10.55;;;5.22;;
81725;SDS011;71135;16.738;-14.648;2024-02-14T19:52:03;10.13;;;5.53;;
81725;SDS011;71135;16.738;-14.648;2024-02-14T19:54:35;16.85;;;7.10;;
81725;SDS011;71135;16.738;-14.648;2024-02-14T19:57:08;13.55;;;6.90;;
81725;SDS011;71135;16.738;-14.648;2024-02-14T19:59:37;14.32;;;5.68;;
81725;SDS011;71135;16.738;-14.648;2024-02-14T20:02:06;12.18;;;6.13;;
81725;SDS011;71135;16.738;-14.648;2024-02-14T20:04:36;16.48;;;8.88;;
81725;SDS011;71135;16.738;-14.648;2024-02-14T20:07:05;13.75;;;7.40;;
81725;SDS011;71135;16.738;-14.648;2024-02-14T20:09:34;15.13;;;6.97;;
81725;SDS011;71135;16.738;-14.648;2024-02-14T20:12:03;11.20;;;8.40;;
81725;SDS011;71135;16.738;-14.648;2024-02-14T20:14:41;12.88;;;6.22;;
81725;SDS011;71135;16.738;-14.648;2024-02-14T20:17:10;15.38;;;6.88;;
81725;SDS011;71135;16.738;-14.648;2024-02-14T20:19:40;15.80;;;6.97;;
81725;SDS011;71135;16.738;-14.648;2024-02-14T20:22:11;12.80;;;7.22;;
81725;SDS011;71135;16.738;-14.648;2024-02-14T20:24:41;15.15;;;6.72;;
81725;SDS011;71135;16.738;-14.648;2024-02-14T20:27:10;15.32;;;7.97;;
81725;SDS011;71135;16.738;-14.648;2024-02-14T20:29:42;17.80;;;9.45;;
81725;SDS011;71135;16.738;-14.648;2024-02-14T20:32:11;17.40;;;8.25;;
81725;SDS011;71135;16.738;-14.648;2024-02-14T20:34:41;17.88;;;8.63;;
81725;SDS011;71135;16.738;-14.648;2024-02-14T20:37:10;18.15;;;8.00;;
81725;SDS011;71135;16.738;-14.648;2024-02-14T20:39:40;21.13;;;8.48;;
81725;SDS011;71135;16.738;-14.648;2024-02-14T20:42:09;15.95;;;8.85;;
81725;SDS011;71135;16.738;-14.648;2024-02-14T20:44:43;15.65;;;8.20;;
81725;SDS011;71135;16.738;-14.648;2024-02-14T20:47:12;17.25;;;7.95;;
81725;SDS011;71135;16.738;-14.648;2024-02-14T20:49:42;18.67;;;8.70;;
81725;SDS011;71135;16.738;-14.648;2024-02-14T20:52:11;15.48;;;9.38;;
81725;SDS011;71135;16.738;-14.648;2024-02-14T20:54:40;18.63;;;9.45;;
81725;SDS011;71135;16.738;-14.648;2024-02-14T20:57:10;19.40;;;9.88;;
81725;SDS011;71135;16.738;-14.648;2024-02-14T20:59:39;16.77;;;8.75;;
81725;SDS011;71135;16.738;-14.648;2024-02-14T21:02:10;19.67;;;9.88;;
81725;SDS011;71135;16.738;-14.648;2024-02-14T21:04:40;20.20;;;10.30;;
81725;SDS011;71135;16.738;-14.648;2024-02-14T21:07:09;18.83;;;9.32;;
81725;SDS011;71135;16.738;-14.648;2024-02-14T21:09:41;16.38;;;8.82;;
81725;SDS011;71135;16.738;-14.648;2024-02-14T21:12:10;16.38;;;7.35;;
81725;SDS011;71135;16.738;-14.648;2024-02-14T21:14:40;15.50;;;8.90;;
81725;SDS011;71135;16.738;-14.648;2024-02-14T21:17:12;12.77;;;6.15;;
81725;SDS011;71135;16.738;-14.648;2024-02-14T21:19:41;16.27;;;7.53;;
81725;SDS011;71135;16.738;-14.648;2024-02-14T21:22:11;15.35;;;8.02;;
81725;SDS011;71135;16.738;-14.648;2024-02-14T21:24:40;17.23;;;8.20;;
81725;SDS011;71135;16.738;-14.648;2024-02-14T21:27:09;20.45;;;9.32;;
81725;SDS011;71135;16.738;-14.648;2024-02-14T21:29:40;14.45;;;7.13;;
81725;SDS011;71135;16.738;-14.648;2024-02-14T21:32:12;14.15;;;8.07;;
81725;SDS011;71135;16.738;-14.648;2024-02-14T21:34:42;13.65;;;7.60;;
81725;SDS011;71135;16.738;-14.648;2024-02-14T21:37:11;16.83;;;8.20;;
81725;SDS011;71135;16.738;-14.648;2024-02-14T21:39:40;11.57;;;8.00;;
81725;SDS011;71135;16.738;-14.648;2024-02-14T21:42:09;17.77;;;7.78;;
81725;SDS011;71135;16.738;-14.648;2024-02-14T21:44:38;16.45;;;9.88;;
81725;SDS011;71135;16.738;-14.648;2024-02-14T21:47:08;15.75;;;9.32;;
81725;SDS011;71135;16.738;-14.648;2024-02-14T21:49:39;14.00;;;8.43;;
81725;SDS011;71135;16.738;-14.648;2024-02-14T21:52:11;18.02;;;9.32;;
81725;SDS011;71135;16.738;-14.648;2024-02-14T21:54:41;15.77;;;9.02;;
81725;SDS011;71135;16.738;-14.648;2024-02-14T21:57:13;19.52;;;10.90;;
81725;SDS011;71135;16.738;-14.648;2024-02-14T21:59:42;22.50;;;9.40;;
81725;SDS011;71135;16.738;-14.648;2024-02-14T22:02:11;18.20;;;8.80;;
81725;SDS011;71135;16.738;-14.648;2024-02-14T22:04:45;17.10;;;9.15;;
81725;SDS011;71135;16.738;-14.648;2024-02-14T22:07:14;25.70;;;10.05;;
81725;SDS011;71135;16.738;-14.648;2024-02-14T22:09:43;16.05;;;9.10;;
81725;SDS011;71135;16.738;-14.648;2024-02-14T22:12:12;19.33;;;9.15;;
81725;SDS011;71135;16.738;-14.648;2024-02-14T22:17:53;15.88;;;8.88;;
81725;SDS011;71135;16.738;-14.648;2024-02-14T22:20:25;12.25;;;7.85;;